METAR and TAF’s


Available data for KLBB from the past 2 hours
LUBBOCK, TX
Metar
KLBB 171753Z 19018KT 10SM FEW060 FEW250 33/17 A3005 RMK AO2 SLP113 T03280167 10328 20244 58004 $

17:53 UTC

Wind: 190° 18kt

Visibility: 10 SM

Sky: FEW 6000 ft

Temp: 33 deg C / 91.4 deg F

Dewpoint: 17 deg C / 62.6 deg F

Pressure: 30.05 inHg

TAF
KLBB 171720Z 1718/1818 21015KT P6SM FEW150 SCT250 FM180900 18011KT P6SM SKC
Available data for KCVN from the past 2 hours
CLOVIS MUNI, NM
Metar
KCVN 171756Z AUTO 19013KT 10SM CLR 34/14 A3009 RMK AO2 SLP135 6//// T03390144 10339 20200 56009 PNO $

17:56 UTC

Wind: 190° 13kt

Visibility: 10 SM

Sky:

Temp: 34 deg C / 93.2 deg F

Dewpoint: 14 deg C / 57.2 deg F

Pressure: 30.09 inHg